createdAt,value
2017-09-18T00:00:35.716Z,88.20
2017-09-18T00:03:03.249Z,88.20
2017-09-18T00:05:31.310Z,87.80
2017-09-18T00:07:58.882Z,87.80
2017-09-18T00:10:27.289Z,87.90
2017-09-18T00:12:55.660Z,87.90
2017-09-18T00:15:23.330Z,87.90
2017-09-18T00:17:50.780Z,87.90
2017-09-18T00:20:18.247Z,88.20
2017-09-18T00:22:45.814Z,88.40
2017-09-18T00:25:13.297Z,89.30
2017-09-18T00:27:40.774Z,88.60
2017-09-18T00:30:08.258Z,88.20
2017-09-18T00:32:35.759Z,88.70
2017-09-18T00:35:04.008Z,88.80
2017-09-18T00:37:31.478Z,88.80
2017-09-18T00:39:58.961Z,88.30
2017-09-18T00:42:26.473Z,88.40
2017-09-18T00:44:53.968Z,88.40
2017-09-18T00:47:21.584Z,88.60
2017-09-18T00:49:49.128Z,88.70
2017-09-18T00:52:16.639Z,88.40
2017-09-18T00:54:44.935Z,88.50
2017-09-18T00:57:12.436Z,88.40
2017-09-18T00:59:40.698Z,88.20
2017-09-18T01:02:08.188Z,88.40
2017-09-18T01:04:35.648Z,88.40
2017-09-18T01:07:03.109Z,88.10
2017-09-18T01:09:31.216Z,88.30
2017-09-18T01:11:59.010Z,88.00
2017-09-18T01:14:26.492Z,87.90
2017-09-18T01:16:54.354Z,87.80
2017-09-18T01:19:21.837Z,88.50
2017-09-18T01:21:50.090Z,88.60
2017-09-18T01:24:17.710Z,88.50
2017-09-18T01:26:45.189Z,88.70
2017-09-18T01:29:12.656Z,88.30
2017-09-18T01:31:40.106Z,88.00
2017-09-18T01:34:07.788Z,87.80
2017-09-18T01:36:35.274Z,88.40
2017-09-18T01:39:03.513Z,88.70
2017-09-18T01:41:31.045Z,88.60
2017-09-18T01:43:58.531Z,89.60
2017-09-18T01:46:26.005Z,88.70
2017-09-18T01:48:53.531Z,88.90
2017-09-18T01:51:21.019Z,88.40
2017-09-18T01:53:48.479Z,88.10
2017-09-18T01:56:17.077Z,88.50
2017-09-18T01:58:45.337Z,88.50
2017-09-18T02:01:13.586Z,89.10
2017-09-18T02:03:41.100Z,88.40
2017-09-18T02:06:08.545Z,88.60
2017-09-18T02:08:36.891Z,88.60
2017-09-18T02:11:04.366Z,88.60
2017-09-18T02:13:32.599Z,88.30
2017-09-18T02:16:00.120Z,88.40
2017-09-18T02:18:28.890Z,89.00
2017-09-18T02:20:57.187Z,89.00
2017-09-18T02:23:24.677Z,89.00
2017-09-18T02:25:52.294Z,89.10
2017-09-18T02:28:21.122Z,89.10
2017-09-18T02:30:48.654Z,89.10
2017-09-18T02:33:16.105Z,89.00
2017-09-18T02:35:43.604Z,88.70
2017-09-18T02:38:11.242Z,88.80
2017-09-18T02:40:38.731Z,88.70
2017-09-18T02:43:06.338Z,88.60
2017-09-18T02:45:33.805Z,88.90
2017-09-18T02:48:01.288Z,89.00
2017-09-18T02:50:28.755Z,88.90
2017-09-18T02:52:56.238Z,89.00
2017-09-18T02:55:25.250Z,88.80
2017-09-18T02:57:53.499Z,88.70
2017-09-18T03:00:21.113Z,88.70
2017-09-18T03:02:48.562Z,88.60
2017-09-18T03:05:16.040Z,88.70
2017-09-18T03:07:43.609Z,88.90
2017-09-18T03:10:11.110Z,89.20
2017-09-18T03:12:38.915Z,89.50
2017-09-18T03:15:06.356Z,89.90
2017-09-18T03:17:33.819Z,89.80
2017-09-18T03:20:01.303Z,89.70
2017-09-18T03:22:28.849Z,89.70
2017-09-18T03:24:56.299Z,89.20
2017-09-18T03:27:23.800Z,89.40
2017-09-18T03:29:51.328Z,89.30
2017-09-18T03:32:18.807Z,89.30
2017-09-18T03:34:46.275Z,89.10
2017-09-18T03:37:14.761Z,88.60
2017-09-18T03:39:42.229Z,88.60
2017-09-18T03:42:09.690Z,89.30
2017-09-18T03:44:37.922Z,88.60
2017-09-18T03:47:05.391Z,88.60
2017-09-18T03:49:32.917Z,88.70
2017-09-18T03:52:00.407Z,88.90
2017-09-18T03:54:29.122Z,89.10
2017-09-18T03:56:56.601Z,88.40
2017-09-18T03:59:25.438Z,88.60
2017-09-18T04:02:02.859Z,88.50
2017-09-18T04:04:31.165Z,88.70
2017-09-18T04:06:58.890Z,88.70
2017-09-18T04:09:26.361Z,88.90
2017-09-18T04:11:54.573Z,88.90
2017-09-18T04:14:22.058Z,88.80
2017-09-18T04:16:49.576Z,89.00
2017-09-18T04:19:17.047Z,89.00
2017-09-18T04:21:44.543Z,88.80
2017-09-18T04:24:13.083Z,88.90
2017-09-18T04:26:40.990Z,88.70
2017-09-18T04:29:08.478Z,88.60
2017-09-18T04:31:36.713Z,88.10
2017-09-18T04:34:04.173Z,88.00
2017-09-18T04:36:31.644Z,87.80
2017-09-18T04:38:59.100Z,87.80
2017-09-18T04:41:26.669Z,87.90
2017-09-18T04:43:54.121Z,88.20
2017-09-18T04:46:22.529Z,88.60
2017-09-18T04:48:50.809Z,88.80
2017-09-18T04:51:19.410Z,88.80
2017-09-18T04:53:46.888Z,88.80
2017-09-18T04:56:14.344Z,88.90
2017-09-18T04:58:41.842Z,89.10
2017-09-18T05:01:10.107Z,89.20
2017-09-18T05:03:37.621Z,89.10
2017-09-18T05:06:05.119Z,89.00
2017-09-18T05:08:32.606Z,88.70
2017-09-18T05:11:00.115Z,89.30
2017-09-18T05:13:27.595Z,89.50
2017-09-18T05:15:55.237Z,89.70
2017-09-18T05:18:22.707Z,89.40
2017-09-18T05:20:50.226Z,89.50
2017-09-18T05:23:17.721Z,89.50
2017-09-18T05:25:45.201Z,89.50
2017-09-18T05:28:13.496Z,89.40
2017-09-18T05:30:40.988Z,89.40
2017-09-18T05:33:08.490Z,88.30
2017-09-18T05:35:36.725Z,88.30
2017-09-18T05:38:04.183Z,88.30
2017-09-18T05:40:31.796Z,88.20
2017-09-18T05:42:59.263Z,88.70
2017-09-18T05:45:27.762Z,88.20
2017-09-18T05:47:55.222Z,87.80
2017-09-18T05:50:22.702Z,87.70
2017-09-18T05:52:50.200Z,88.10
2017-09-18T05:55:19.242Z,87.60
2017-09-18T05:57:46.894Z,87.60
2017-09-18T06:00:14.368Z,87.10
2017-09-18T06:02:41.989Z,87.30
2017-09-18T06:05:10.230Z,86.90
2017-09-18T06:07:39.817Z,86.80
2017-09-18T06:10:07.435Z,86.90
2017-09-18T06:12:34.907Z,86.20
2017-09-18T06:15:02.426Z,86.50
2017-09-18T06:17:30.027Z,86.00
2017-09-18T06:19:57.521Z,86.30
2017-09-18T06:22:25.764Z,86.00
2017-09-18T06:24:53.312Z,86.30
2017-09-18T06:27:20.791Z,86.00
2017-09-18T06:29:48.269Z,85.90
2017-09-18T06:32:15.945Z,85.90
2017-09-18T06:34:43.732Z,84.60
2017-09-18T06:37:11.964Z,84.40
2017-09-18T06:39:39.433Z,84.30
2017-09-18T06:42:07.467Z,83.50
2017-09-18T06:44:34.945Z,83.70
2017-09-18T06:47:02.452Z,84.40
2017-09-18T06:49:30.684Z,84.30
2017-09-18T06:51:58.148Z,84.30
2017-09-18T06:54:25.627Z,84.20
2017-09-18T06:56:53.906Z,83.60
2017-09-18T06:59:21.564Z,83.50
2017-09-18T07:01:49.037Z,83.70
2017-09-18T07:04:17.339Z,83.90
2017-09-18T07:06:44.825Z,83.90
2017-09-18T07:09:12.318Z,83.70
2017-09-18T07:11:40.809Z,83.10
2017-09-18T07:14:09.062Z,82.20
2017-09-18T07:16:36.544Z,82.20
2017-09-18T07:19:04.823Z,80.90
2017-09-18T07:21:32.330Z,80.90
2017-09-18T07:24:00.087Z,80.70
2017-09-18T07:26:27.627Z,80.70
2017-09-18T07:28:55.117Z,80.90
2017-09-18T07:31:22.665Z,79.70
2017-09-18T07:33:50.167Z,79.20
2017-09-18T07:36:19.297Z,79.00
2017-09-18T07:38:47.359Z,79.00
2017-09-18T07:41:14.820Z,78.10
2017-09-18T07:43:42.445Z,77.90
2017-09-18T07:46:10.700Z,75.50
2017-09-18T07:48:38.320Z,75.40
2017-09-18T07:51:05.789Z,75.90
2017-09-18T07:53:33.250Z,75.40
2017-09-18T07:56:00.748Z,75.40
2017-09-18T07:58:28.223Z,76.50
2017-09-18T08:00:56.695Z,76.00
2017-09-18T08:03:24.940Z,76.90
2017-09-18T08:05:52.418Z,76.90
2017-09-18T08:08:19.922Z,76.60
2017-09-18T08:10:47.404Z,76.90
2017-09-18T08:13:15.074Z,76.30
2017-09-18T08:15:42.576Z,76.70
2017-09-18T08:18:10.150Z,76.80
2017-09-18T08:20:37.627Z,76.30
2017-09-18T08:23:05.727Z,76.20
2017-09-18T08:25:34.443Z,76.20
2017-09-18T08:28:02.687Z,74.00
2017-09-18T08:30:30.232Z,74.00
2017-09-18T08:32:58.594Z,75.70
2017-09-18T08:35:26.115Z,75.00
2017-09-18T08:37:54.395Z,74.30
2017-09-18T08:40:22.638Z,74.70
2017-09-18T08:42:50.281Z,74.70
2017-09-18T08:45:17.778Z,73.00
2017-09-18T08:47:45.685Z,70.20
2017-09-18T08:50:13.303Z,70.10
2017-09-18T08:52:40.801Z,68.50
2017-09-18T08:55:08.306Z,67.50
2017-09-18T08:57:35.776Z,69.20
2017-09-18T09:00:04.366Z,69.60
2017-09-18T09:02:32.829Z,69.90
2017-09-18T09:05:00.319Z,69.80
2017-09-18T09:07:28.562Z,70.90
2017-09-18T09:09:56.039Z,70.90
2017-09-18T09:12:24.278Z,70.30
2017-09-18T09:14:51.777Z,70.20
2017-09-18T09:17:20.061Z,68.70
2017-09-18T09:19:48.286Z,68.00
2017-09-18T09:22:15.780Z,68.00
2017-09-18T09:24:44.169Z,71.60
2017-09-18T09:27:11.843Z,71.60
2017-09-18T09:29:39.355Z,74.70
2017-09-18T09:32:06.842Z,76.00
2017-09-18T09:34:35.169Z,78.80
2017-09-18T09:37:03.608Z,78.70
2017-09-18T09:39:31.454Z,80.00
2017-09-18T09:41:59.131Z,80.10
2017-09-18T09:44:27.383Z,80.30
2017-09-18T09:46:54.889Z,80.40
2017-09-18T09:49:22.354Z,80.10
2017-09-18T09:51:49.991Z,79.20
2017-09-18T09:54:17.470Z,79.20
2017-09-18T09:56:44.979Z,78.90
2017-09-18T09:59:12.471Z,78.60
2017-09-18T10:01:40.063Z,79.30
2017-09-18T10:04:07.852Z,78.60
2017-09-18T10:06:35.335Z,78.60
2017-09-18T10:09:03.591Z,78.90
2017-09-18T10:11:31.070Z,78.90
2017-09-18T10:13:59.344Z,78.40
2017-09-18T10:16:27.841Z,78.00
2017-09-18T10:18:55.324Z,78.00
2017-09-18T10:21:23.631Z,77.90
2017-09-18T10:23:51.145Z,77.80
2017-09-18T10:26:18.640Z,78.50
2017-09-18T10:28:46.248Z,77.70
2017-09-18T10:31:13.717Z,77.30
2017-09-18T10:33:41.193Z,77.00
2017-09-18T10:36:09.274Z,77.00
2017-09-18T10:38:36.764Z,76.70
2017-09-18T10:41:04.325Z,78.80
2017-09-18T10:43:31.796Z,79.00
2017-09-18T10:46:00.067Z,79.20
2017-09-18T10:48:28.392Z,78.60
2017-09-18T10:50:55.866Z,78.60
2017-09-18T10:53:23.571Z,78.00
2017-09-18T10:55:51.871Z,76.20
2017-09-18T10:58:19.682Z,76.10
2017-09-18T11:00:47.161Z,75.80
2017-09-18T11:03:15.413Z,74.90
2017-09-18T11:05:43.100Z,74.90
2017-09-18T11:08:11.346Z,73.80
2017-09-18T11:10:38.818Z,73.60
2017-09-18T11:13:07.064Z,71.20
2017-09-18T11:15:34.528Z,71.40
2017-09-18T11:18:02.424Z,71.80
2017-09-18T11:20:30.702Z,70.40
2017-09-18T11:22:58.968Z,71.30
2017-09-18T11:25:26.461Z,71.30
2017-09-18T11:27:53.952Z,73.90
2017-09-18T11:30:21.454Z,78.40
2017-09-18T11:32:49.721Z,81.90
2017-09-18T11:35:17.201Z,81.80
2017-09-18T11:37:45.417Z,85.20
2017-09-18T11:40:12.888Z,85.20
2017-09-18T11:42:42.126Z,85.00
2017-09-18T11:45:10.350Z,84.70
2017-09-18T11:47:37.855Z,84.70
2017-09-18T11:50:06.129Z,87.50
2017-09-18T11:52:34.450Z,89.50
2017-09-18T11:55:02.090Z,89.40
2017-09-18T11:57:29.583Z,90.00
2017-09-18T11:59:57.049Z,90.50
2017-09-18T12:02:24.512Z,89.60
2017-09-18T12:04:52.015Z,89.20
2017-09-18T12:07:20.499Z,88.80
2017-09-18T12:09:47.976Z,88.60
2017-09-18T12:12:15.869Z,88.80
2017-09-18T12:14:43.441Z,87.90
2017-09-18T12:17:10.912Z,86.80
2017-09-18T12:19:38.393Z,85.80
2017-09-18T12:22:05.889Z,86.60
2017-09-18T12:24:33.353Z,88.20
2017-09-18T12:27:00.947Z,86.90
2017-09-18T12:29:29.182Z,88.40
2017-09-18T12:31:56.876Z,88.40
2017-09-18T12:34:24.375Z,88.40
2017-09-18T12:36:52.461Z,87.80
2017-09-18T12:39:19.940Z,87.80
2017-09-18T12:41:47.430Z,85.60
2017-09-18T12:44:15.908Z,87.80
2017-09-18T12:46:43.350Z,87.70
2017-09-18T12:49:10.805Z,90.00
2017-09-18T12:51:38.298Z,90.10
2017-09-18T12:54:06.502Z,90.10
2017-09-18T12:56:34.126Z,90.10
2017-09-18T12:59:02.518Z,87.10
2017-09-18T13:01:30.011Z,86.90
2017-09-18T13:03:57.594Z,87.40
2017-09-18T13:06:25.096Z,88.70
2017-09-18T13:08:52.610Z,87.70
2017-09-18T13:11:20.135Z,86.00
2017-09-18T13:13:48.321Z,86.70
2017-09-18T13:16:15.857Z,83.90
2017-09-18T13:18:43.349Z,84.50
2017-09-18T13:21:11.066Z,82.60
2017-09-18T13:23:39.198Z,82.00
2017-09-18T13:26:06.718Z,84.10
2017-09-18T13:28:34.199Z,84.60
2017-09-18T13:31:01.689Z,81.90
2017-09-18T13:33:31.079Z,80.10
2017-09-18T13:35:59.316Z,80.00
2017-09-18T13:38:26.816Z,80.00
2017-09-18T13:40:54.324Z,78.80
2017-09-18T13:43:21.823Z,77.80
2017-09-18T13:45:49.518Z,79.60
2017-09-18T13:48:17.008Z,82.40
2017-09-18T13:50:44.488Z,83.90
2017-09-18T13:53:11.991Z,84.90
2017-09-18T13:55:39.480Z,84.30
2017-09-18T13:58:07.195Z,84.40
2017-09-18T14:00:35.457Z,84.40
2017-09-18T14:03:03.000Z,84.40
2017-09-18T14:05:30.623Z,84.90
2017-09-18T14:07:59.805Z,86.40
2017-09-18T14:10:27.485Z,86.30
2017-09-18T14:12:54.988Z,86.90
2017-09-18T14:15:22.470Z,86.10
2017-09-18T14:17:50.736Z,86.10
2017-09-18T14:20:19.649Z,84.60
2017-09-18T14:22:48.077Z,85.20
2017-09-18T14:25:15.591Z,85.70
2017-09-18T14:27:43.076Z,83.60
2017-09-18T14:30:10.587Z,82.80
2017-09-18T14:32:38.849Z,83.00
2017-09-18T14:35:06.629Z,82.90
2017-09-18T14:37:35.221Z,82.90
2017-09-18T14:40:03.470Z,82.50
2017-09-18T14:42:30.936Z,82.40
2017-09-18T14:44:59.210Z,82.70
2017-09-18T14:47:26.887Z,82.70
2017-09-18T14:49:55.421Z,81.90
2017-09-18T14:52:22.897Z,82.00
2017-09-18T14:54:50.585Z,82.30
2017-09-18T14:57:19.654Z,83.10
2017-09-18T14:59:47.187Z,83.10
2017-09-18T15:02:14.745Z,82.70
2017-09-18T15:04:42.232Z,83.80
2017-09-18T15:07:09.700Z,83.80
2017-09-18T15:09:37.978Z,86.20
2017-09-18T15:12:06.395Z,86.70
2017-09-18T15:14:33.877Z,86.60
2017-09-18T15:17:01.405Z,86.30
2017-09-18T15:19:28.888Z,86.50
2017-09-18T15:21:57.175Z,85.80
2017-09-18T15:24:24.869Z,86.70
2017-09-18T15:26:53.199Z,86.10
2017-09-18T15:29:20.716Z,85.40
2017-09-18T15:31:48.974Z,84.10
2017-09-18T15:34:16.470Z,83.80
2017-09-18T15:36:44.184Z,83.30
2017-09-18T15:39:11.813Z,80.70
2017-09-18T15:41:39.341Z,80.70
2017-09-18T15:44:06.908Z,81.30
2017-09-18T15:46:34.490Z,81.50
2017-09-18T15:49:02.274Z,81.70
2017-09-18T15:51:29.769Z,80.30
2017-09-18T15:54:08.532Z,79.30
2017-09-18T15:56:36.000Z,79.30
2017-09-18T15:59:03.527Z,81.60
2017-09-18T16:01:31.237Z,85.30
2017-09-18T16:03:58.737Z,85.50
2017-09-18T16:06:26.296Z,90.20
2017-09-18T16:08:54.508Z,88.80
2017-09-18T16:11:22.099Z,88.70
2017-09-18T16:13:49.680Z,88.70
2017-09-18T16:16:18.068Z,88.50
2017-09-18T16:18:46.273Z,89.10
2017-09-18T16:21:13.860Z,89.00
2017-09-18T16:23:41.400Z,89.70
2017-09-18T16:26:08.923Z,90.00
2017-09-18T16:28:36.430Z,90.30
2017-09-18T16:31:03.962Z,90.40
2017-09-18T16:33:31.461Z,90.00
2017-09-18T16:35:58.990Z,90.20
2017-09-18T16:38:26.553Z,90.30
2017-09-18T16:40:54.007Z,90.40
2017-09-18T16:43:21.516Z,90.50
2017-09-18T16:45:49.794Z,90.90
2017-09-18T16:48:18.700Z,91.20
2017-09-18T16:50:46.495Z,91.20
2017-09-18T16:53:13.985Z,91.10
2017-09-18T16:55:41.571Z,91.20
2017-09-18T16:58:09.834Z,91.40
2017-09-18T17:00:37.363Z,91.40
2017-09-18T17:03:04.853Z,91.10
2017-09-18T17:05:32.437Z,91.00
2017-09-18T17:08:00.692Z,91.00
2017-09-18T17:10:29.018Z,90.90
2017-09-18T17:12:57.134Z,90.90
2017-09-18T17:15:24.639Z,91.00
2017-09-18T17:17:52.128Z,91.30
2017-09-18T17:20:19.629Z,91.40
2017-09-18T17:22:47.995Z,91.70
2017-09-18T17:25:26.315Z,91.80
2017-09-18T17:27:53.901Z,91.80
2017-09-18T17:30:21.382Z,92.10
2017-09-18T17:32:48.874Z,91.80
2017-09-18T17:35:38.722Z,91.80
2017-09-18T17:38:24.299Z,91.90
2017-09-18T17:40:52.858Z,92.10
2017-09-18T17:43:20.356Z,92.10
2017-09-18T17:45:47.978Z,92.20
2017-09-18T17:48:15.570Z,92.10
2017-09-18T17:50:43.086Z,92.20
2017-09-18T17:53:11.059Z,92.20
2017-09-18T17:55:38.638Z,92.20
2017-09-18T17:58:06.179Z,92.30
2017-09-18T18:00:34.592Z,92.30
2017-09-18T18:03:02.152Z,92.30
2017-09-18T18:05:29.881Z,92.40
2017-09-18T18:07:57.381Z,92.30
2017-09-18T18:10:24.877Z,92.30
2017-09-18T18:12:53.232Z,92.30
2017-09-18T18:15:20.787Z,92.30
2017-09-18T18:17:48.403Z,92.30
2017-09-18T18:20:15.900Z,92.20
2017-09-18T18:22:43.470Z,92.10
2017-09-18T18:25:10.958Z,92.10
2017-09-18T18:27:39.216Z,92.10
2017-09-18T18:30:07.487Z,92.10
2017-09-18T18:32:34.962Z,92.20
2017-09-18T18:35:02.648Z,92.10
2017-09-18T18:37:30.165Z,92.10
2017-09-18T18:39:58.458Z,92.10
2017-09-18T18:42:27.181Z,92.10
2017-09-18T18:44:54.649Z,92.10
2017-09-18T18:47:22.360Z,92.30
2017-09-18T18:49:50.669Z,92.20
2017-09-18T18:52:18.154Z,92.20
2017-09-18T18:54:45.682Z,92.30
2017-09-18T18:57:13.777Z,92.30
2017-09-18T18:59:41.271Z,92.30
2017-09-18T19:02:09.518Z,92.20
2017-09-18T19:04:37.414Z,92.20
2017-09-18T19:07:05.646Z,92.50
2017-09-18T19:09:33.234Z,92.50
2017-09-18T19:12:00.739Z,92.70
2017-09-18T19:14:28.237Z,92.80
2017-09-18T19:16:55.744Z,92.90
2017-09-18T19:19:23.258Z,92.90
2017-09-18T19:21:50.900Z,92.90
2017-09-18T19:24:18.381Z,92.90
2017-09-18T19:26:45.845Z,93.00
2017-09-18T19:29:13.421Z,93.10
2017-09-18T19:31:42.277Z,93.10
2017-09-18T19:34:09.791Z,93.10
2017-09-18T19:36:37.273Z,93.10
2017-09-18T19:39:04.962Z,93.10
2017-09-18T19:41:32.448Z,93.10
2017-09-18T19:44:00.706Z,93.10
2017-09-18T19:46:28.261Z,93.10
2017-09-18T19:48:55.779Z,93.10
2017-09-18T19:51:23.440Z,93.10
2017-09-18T19:53:50.966Z,93.10
2017-09-18T19:56:19.282Z,93.10
2017-09-18T19:58:46.845Z,93.10
2017-09-18T20:01:24.500Z,93.10
2017-09-18T20:03:52.971Z,93.30
2017-09-18T20:06:21.349Z,93.30
2017-09-18T20:08:49.635Z,93.50
2017-09-18T20:11:17.897Z,93.60
2017-09-18T20:13:46.139Z,93.60
2017-09-18T20:16:13.850Z,93.60
2017-09-18T20:18:42.128Z,93.60
2017-09-18T20:21:09.625Z,93.60
2017-09-18T20:23:37.111Z,93.60
2017-09-18T20:26:05.821Z,93.50
2017-09-18T20:28:34.301Z,93.50
2017-09-18T20:31:02.923Z,93.50
2017-09-18T20:33:30.594Z,93.50
2017-09-18T20:35:58.083Z,93.50
2017-09-18T20:38:25.609Z,93.40
2017-09-18T20:40:53.126Z,93.40
2017-09-18T20:43:21.758Z,93.30
2017-09-18T20:45:55.109Z,93.30
2017-09-18T20:48:24.819Z,93.30
2017-09-18T20:50:52.316Z,93.30
2017-09-18T20:53:19.882Z,93.20
2017-09-18T20:55:47.386Z,93.20
2017-09-18T20:58:15.621Z,93.20
2017-09-18T21:00:43.169Z,93.20
2017-09-18T21:03:10.688Z,93.10
2017-09-18T21:05:38.943Z,93.20
2017-09-18T21:08:07.377Z,93.10
2017-09-18T21:10:34.879Z,93.10
2017-09-18T21:13:02.359Z,93.10
2017-09-18T21:15:29.888Z,93.20
2017-09-18T21:17:57.348Z,93.10
2017-09-18T21:20:25.608Z,93.10
2017-09-18T21:22:53.091Z,93.10
2017-09-18T21:25:21.411Z,93.00
2017-09-18T21:27:49.354Z,93.00
2017-09-18T21:30:17.596Z,92.90
2017-09-18T21:32:45.077Z,92.90
2017-09-18T21:35:12.598Z,92.80
2017-09-18T21:37:40.097Z,93.00
2017-09-18T21:40:08.764Z,93.10
2017-09-18T21:42:36.254Z,93.10
2017-09-18T21:45:03.740Z,93.40
2017-09-18T21:47:31.239Z,93.10
2017-09-18T21:49:58.727Z,93.00
2017-09-18T21:52:27.030Z,93.00
2017-09-18T21:54:54.933Z,93.00
2017-09-18T21:57:23.182Z,93.00
2017-09-18T21:59:50.683Z,93.00
2017-09-18T22:02:18.917Z,93.00
2017-09-18T22:04:46.884Z,93.00
2017-09-18T22:07:14.411Z,92.80
2017-09-18T22:09:41.901Z,93.00
2017-09-18T22:12:09.447Z,93.00
2017-09-18T22:14:37.793Z,92.80
2017-09-18T22:17:06.076Z,93.10
2017-09-18T22:19:33.609Z,93.10
2017-09-18T22:22:01.110Z,93.10
2017-09-18T22:24:28.587Z,93.20
2017-09-18T22:26:56.141Z,93.20
2017-09-18T22:29:24.083Z,93.20
2017-09-18T22:31:52.420Z,93.20
2017-09-18T22:34:19.906Z,93.30
2017-09-18T22:36:48.141Z,93.50
2017-09-18T22:39:15.641Z,93.40
2017-09-18T22:41:43.129Z,93.50
2017-09-18T22:44:10.597Z,93.50
2017-09-18T22:46:38.101Z,93.40
2017-09-18T22:49:07.141Z,93.30
2017-09-18T22:51:34.632Z,93.30
2017-09-18T22:54:02.347Z,93.30
2017-09-18T22:56:29.865Z,93.10
2017-09-18T22:58:58.091Z,93.00
2017-09-18T23:01:25.664Z,93.00
2017-09-18T23:03:53.191Z,93.00
2017-09-18T23:06:20.923Z,93.00
2017-09-18T23:08:49.255Z,93.10
2017-09-18T23:11:16.733Z,93.10
2017-09-18T23:13:44.252Z,93.10
2017-09-18T23:16:11.713Z,93.10
2017-09-18T23:18:39.447Z,93.40
2017-09-18T23:21:07.682Z,93.10
2017-09-18T23:23:35.168Z,93.10
2017-09-18T23:26:03.417Z,93.00
2017-09-18T23:28:30.899Z,93.00
2017-09-18T23:30:59.613Z,93.10
2017-09-18T23:33:27.150Z,93.10
2017-09-18T23:35:55.395Z,93.10
2017-09-18T23:38:22.942Z,93.10
2017-09-18T23:40:50.443Z,93.10
2017-09-18T23:43:18.943Z,93.10
2017-09-18T23:45:46.471Z,93.10
2017-09-18T23:48:13.992Z,93.10
2017-09-18T23:50:41.491Z,93.10
2017-09-18T23:53:08.986Z,93.00
2017-09-18T23:55:36.481Z,93.10
2017-09-18T23:58:03.995Z,93.20
